Flight Track Log - Related Links

Times and Time Zones

All times are in EDT time to prevent confusion due to time zone crossing. See the SKW6341 flight status page for this flight to view local times or setup timezone preferences in your user account.

Time Position Orientation Groundspeed Altitude Reporting Facility
EDT Latitude Longitude Course Direction KTS MPH feet Rate Location/Type
Thu 03:13:19 PM 29.5136 -98.4794 243° Southwest 167 192 1,700  Level Houston Center
Thu 03:14:39 PM 29.4822 -98.5503 243° Southwest 243 280 3,700 1,554 Climbing Houston Center
Thu 03:15:11 PM 29.5053 -98.5889 304° West 263 303 4,600 2,231 Climbing Houston Center
Thu 03:17:15 PM 29.6536 -98.6767 333° Northwest 292 336 9,500 2,150 Climbing Houston Center
Thu 03:18:18 PM 29.7392 -98.7225 335° Northwest 314 361 11,300 1,824 Climbing Houston Center
Thu 03:19:20 PM 29.8267 -98.7700 335° Northwest 341 392 13,300 1,935 Climbing Houston Center
Thu 03:20:22 PM 29.9081 -98.8317 327° Northwest 354 407 15,300 1,906 Climbing Houston Center
Thu 03:22:10 PM 30.0231 -98.9939 309° West 362 417 18,700 1,839 Climbing Fort Worth Center
Thu 03:23:28 PM 30.0986 -99.1000 309° West 360 414 21,000 1,540 Climbing Houston Center
Thu 03:25:17 PM 30.1642 -99.2978 291° West 366 421 23,500 1,298 Climbing Fort Worth Center
Thu 03:26:19 PM 30.1978 -99.4117 289° West 371 427 24,700 1,161 Climbing Fort Worth Center
Thu 03:27:21 PM 30.2386 -99.5536 288° West 385 443 25,900 1,065 Climbing Fort Worth Center
Thu 03:28:23 PM 30.2719 -99.6733 288° West 390 449 26,900 900 Climbing Fort Worth Center
Thu 03:29:41 PM 30.3156 -99.8233 289° West 407 468 28,000 806 Climbing Houston Center
Thu 03:31:29 PM 30.3803 -100.0533 288° West 427 491 29,400 802 Climbing Fort Worth Center
Thu 03:32:48 PM 30.4328 -100.2381 288° West 432 497 30,500 809 Climbing Houston Center
Thu 03:33:50 PM 30.4700 -100.3731 288° West 440 506 31,300 812 Climbing Houston Center
Thu 03:35:38 PM 30.5372 -100.6167 288° West 444 511 32,800 847 Climbing Fort Worth Center
Thu 03:36:40 PM 30.5817 -100.7822 287° West 448 516 33,700 823 Climbing Fort Worth Center
Thu 03:37:42 PM 30.6203 -100.9186 288° West 447 514 34,500 681 Climbing Fort Worth Center
Thu 03:39:01 PM 30.6658 -101.0844 288° West 447 514 35,300 681 Climbing Houston Center
Thu 03:40:03 PM 30.7022 -101.2222 287° West 447 514 36,100 812 Climbing Houston Center
Thu 03:41:51 PM 30.7661 -101.4631 287° West 438 504 37,600 671 Climbing Fort Worth Center
Thu 03:42:53 PM 30.8064 -101.6175 287° West 432 497 38,000 170 Climbing Fort Worth Center
Thu 03:44:12 PM 30.8497 -101.7756 288° West 429 494 38,000  Level Houston Center
Thu 03:45:48 PM 30.9056 -101.9881 287° West 430 495 38,000  Level Albuquerque Center
Thu 03:46:50 PM 30.9472 -102.1503 287° West 430 495 38,000  Level Albuquerque Center
Thu 03:47:52 PM 30.9819 -102.2856 287° West 431 496 38,000  Level Albuquerque Center
Thu 03:48:54 PM 31.0144 -102.4053 288° West 431 496 38,000  Level Albuquerque Center
Thu 03:49:56 PM 31.0572 -102.5547 289° West 432 497 38,000  Level Albuquerque Center
Thu 03:50:58 PM 31.0947 -102.6883 288° West 432 497 38,000  Level Albuquerque Center
Thu 03:52:00 PM 31.1308 -102.8197 288° West 430 495 38,000  Level Albuquerque Center
Thu 03:53:01 PM 31.1678 -102.9522 288° West 429 494 38,000  Level Albuquerque Center
Thu 03:54:03 PM 31.2042 -103.0825 288° West 424 488 38,000  Level Albuquerque Center
Thu 03:56:07 PM 31.2825 -103.3703 288° West 424 488 38,000  Level Albuquerque Center
Thu 03:57:09 PM 31.3183 -103.5006 288° West 424 488 38,000  Level Albuquerque Center
Thu 03:58:11 PM 31.3547 -103.6308 288° West 424 488 38,000  Level Albuquerque Center
Thu 03:59:13 PM 31.3892 -103.7614 287° West 423 487 38,000  Level Albuquerque Center
Thu 04:01:17 PM 31.4594 -104.0233 288° West 423 487 38,000  Level Albuquerque Center
Thu 04:02:18 PM 31.5008 -104.1811 287° West 423 487 38,000  Level Albuquerque Center
Thu 04:03:20 PM 31.5364 -104.3139 287° West 423 487 38,000  Level Albuquerque Center
Thu 04:04:22 PM 31.5686 -104.4467 286° West 424 488 38,000  Level Albuquerque Center
Thu 04:05:24 PM 31.6047 -104.5794 288° West 424 488 38,000  Level Albuquerque Center
Thu 04:07:28 PM 31.6806 -104.8453 289° West 429 494 38,000  Level Albuquerque Center
Thu 04:08:30 PM 31.7217 -105.0058 287° West 429 494 38,000  Level Albuquerque Center
Thu 04:10:34 PM 31.7906 -105.2753 286° West 429 494 38,000  Level Albuquerque Center
Thu 04:11:36 PM 31.8222 -105.4194 285° West 431 496 38,000  Level Albuquerque Center
Thu 04:12:38 PM 31.8597 -105.5650 287° West 432 497 38,000  Level Albuquerque Center
Thu 04:14:42 PM 31.9306 -105.8461 286° West 433 498 38,000  Level Albuquerque Center
Thu 04:16:46 PM 32.0019 -106.1239 285° West 435 501 38,000  Level Albuquerque Center
Thu 04:17:48 PM 32.0364 -106.2644 286° West 435 501 38,000  Level Albuquerque Center
Thu 04:19:52 PM 32.1028 -106.5358 286° West 436 502 38,000  Level Albuquerque Center
Thu 04:20:54 PM 32.1358 -106.6725 286° West 436 502 38,000  Level Albuquerque Center
Thu 04:22:58 PM 32.2097 -106.9758 285° West 434 499 38,000  Level Albuquerque Center
Thu 04:24:00 PM 32.2431 -107.1119 286° West 432 497 38,000  Level Albuquerque Center
Thu 04:25:01 PM 32.2689 -107.2400 283° West 432 497 38,000  Level Albuquerque Center
Thu 04:26:03 PM 32.3022 -107.3764 286° West 433 498 38,000  Level Albuquerque Center
Thu 04:27:05 PM 32.3372 -107.5281 285° West 433 498 38,000  Level Albuquerque Center
Thu 04:28:07 PM 32.3686 -107.6650 285° West 433 498 38,000  Level Albuquerque Center
Thu 04:29:09 PM 32.3997 -107.8019 285° West 433 498 38,000  Level Albuquerque Center
Thu 04:30:11 PM 32.4317 -107.9383 286° West 432 497 38,000  Level Albuquerque Center
Thu 04:31:13 PM 32.4656 -108.0869 285° West 432 497 38,000  Level Albuquerque Center
Thu 04:33:16 PM 32.5292 -108.3619 285° West 432 497 38,000  Level Albuquerque Center
Thu 04:35:20 PM 32.5975 -108.6653 285° West 432 497 38,000  Level Albuquerque Center
Thu 04:36:22 PM 32.6289 -108.8047 285° West 432 497 38,000  Level Albuquerque Center
Thu 04:37:24 PM 32.6594 -108.9447 285° West 432 497 38,000  Level Albuquerque Center
Thu 04:38:25 PM 32.6903 -109.0861 285° West 434 499 38,000  Level Albuquerque Center
Thu 04:39:27 PM 32.7219 -109.2267 285° West 434 499 38,000  Level Albuquerque Center
Thu 04:40:29 PM 32.7525 -109.3669 285° West 435 501 38,000  Level Albuquerque Center
Thu 04:42:32 PM 32.8147 -109.6475 284° West 438 504 38,000  Level Albuquerque Center
Thu 04:43:34 PM 32.8453 -109.7869 285° West 437 503 38,000  Level Albuquerque Center
Thu 04:44:36 PM 32.8806 -109.9542 284° West 437 503 38,000  Level Albuquerque Center
Thu 04:45:37 PM 32.9108 -110.0936 285° West 437 503 38,000  Level Albuquerque Center
Thu 04:46:39 PM 32.9397 -110.2342 284° West 437 503 38,000  Level Albuquerque Center
Thu 04:48:43 PM 32.9986 -110.5136 284° West 436 502 38,000  Level Albuquerque Center
Thu 04:49:44 PM 33.0283 -110.6550 284° West 437 503 38,000  Level Albuquerque Center
Thu 04:50:46 PM 33.0603 -110.8156 283° West 437 503 38,000  Level Albuquerque Center
Thu 04:52:50 PM 33.1189 -111.0964 284° West 434 499 38,000  Level Albuquerque Center
Thu 04:54:53 PM 33.1761 -111.3808 284° West 438 504 38,000  Level Albuquerque Center
Thu 04:55:55 PM 33.2039 -111.5228 283° West 438 504 38,000  Level Albuquerque Center
Thu 04:58:10 PM 33.2678 -111.8517 283° West 439 505 38,000  Level Los Angeles Center
Thu 04:59:00 PM 33.2925 -111.9783 283° West 440 506 38,000  Level Albuquerque Center
Thu 05:00:02 PM 33.3203 -112.1181 283° West 436 502 38,000  Level Albuquerque Center
Thu 05:02:06 PM 33.3733 -112.4011 283° West 435 501 38,000  Level Albuquerque Center
Thu 05:03:08 PM 33.4003 -112.5397 283° West 431 496 38,000  Level Albuquerque Center
Thu 05:04:10 PM 33.4286 -112.6872 283° West 430 495 38,000  Level Albuquerque Center
Thu 05:05:11 PM 33.4564 -112.8261 284° West 430 495 38,000  Level Albuquerque Center
Thu 05:07:15 PM 33.5581 -113.1144 293° West 429 494 38,000  Level Albuquerque Center
Thu 05:08:17 PM 33.6050 -113.2450 293° West 429 494 38,000  Level Albuquerque Center
Thu 05:09:19 PM 33.6494 -113.3708 293° West 429 494 38,000  Level Albuquerque Center
Thu 05:10:21 PM 33.6958 -113.5025 293° West 429 494 38,000  Level Albuquerque Center
Thu 05:11:23 PM 33.7414 -113.6336 293° West 428 493 38,000  Level Albuquerque Center
Thu 05:12:24 PM 33.7883 -113.7650 293° West 428 493 38,000  Level Albuquerque Center
Thu 05:13:26 PM 33.8414 -113.9219 292° West 427 491 38,000  Level Albuquerque Center
Thu 05:14:28 PM 33.8875 -114.0539 293° West 427 491 38,000  Level Albuquerque Center
Thu 05:15:46 PM 33.9419 -114.2122 293° West 425 489 38,000  Level Los Angeles Center
Thu 05:17:34 PM 34.0250 -114.4506 293° West 427 491 38,000  Level Albuquerque Center
Thu 05:18:53 PM 34.0872 -114.6361 292° West 427 491 38,000  Level Los Angeles Center
Thu 05:19:55 PM 34.1047 -114.7767 279° West 431 496 38,000  Level Los Angeles Center
Thu 05:20:57 PM 34.1064 -114.9183 271° West 427 491 38,000 -419 Level Los Angeles Center
Thu 05:23:01 PM 34.1086 -115.2297 271° West 429 494 36,700 -742 Descending Los Angeles Center
Thu 05:24:03 PM 34.1100 -115.3769 271° West 437 503 35,700 -960 Descending Los Angeles Center
Thu 05:25:06 PM 34.1119 -115.5222 271° West 437 503 34,700 -960 Descending Los Angeles Center
Thu 05:26:08 PM 34.1131 -115.6631 271° West 428 493 33,700 -1,032 Descending Los Angeles Center
Thu 05:28:12 PM 34.0814 -115.9711 263° West 426 490 31,500 -1,462 Descending Los Angeles Center
Thu 05:33:23 PM 33.9894 -116.6925 270° West 417 480 23,100 -1,737 Descending Los Angeles Center
Thu 05:34:25 PM 33.9764 -116.8481 264° West 396 456 20,700 -1,983 Descending Los Angeles Center
Thu 05:35:21 PM 33.9667 -116.9667 264° West 357 411 19,200 -1,707 Descending Southern California TRACON
Thu 05:36:21 PM 33.9500 -117.0833 260° West 353 406 17,400 -1,600 Descending Southern California TRACON
Thu 05:37:00 PM 33.9409 -117.1454 256° West  Level FlightAware Approximate
Thu 05:37:21 PM 33.9500 -117.2000 270° West 340 391 16,000  Level Southern California TRACON
Thu 05:38:00 PM 33.9333 -117.2794 270° West  Level FlightAware Approximate
Thu 05:39:21 PM 33.9500 -117.4167 270° West 339 390 13,400  Level Southern California TRACON
Thu 05:40:21 PM 33.9833 -117.5167 292° West 308 354 12,300 -1,100 Descending Southern California TRACON
Thu 05:41:21 PM 34.0167 -117.6167 292° West 369 425 11,200 -1,150 Descending Southern California TRACON
Thu 05:42:21 PM 34.0000 -117.7167 259° West 286 329 10,000 -1,200 Descending Southern California TRACON
Thu 05:43:21 PM 34.0000 -117.8167 270° West 284 327 8,800 -1,250 Descending Southern California TRACON
Thu 05:44:21 PM 33.9833 -117.9167 259° West 287 330 7,500 -1,127 Descending Southern California TRACON
Thu 05:46:22 PM 33.9667 -118.1000 264° West 252 290 5,400 -1,160 Descending Southern California TRACON
Thu 05:47:22 PM 33.9667 -118.1667 270° West 225 259 4,000 -1,467 Descending Southern California TRACON
Thu 05:47:52 PM 33.9572 -118.2039 253° West 228 262 3,200 -1,290 Descending Los Angeles Center
Thu 05:48:55 PM 33.9494 -118.2736 262° West 219 252 2,000 -1,008 Descending Los Angeles Center
Thu 05:49:57 PM 33.9442 -118.3289 263° West 186 214 1,100 -871 Descending Los Angeles Center
Thu 05:52:00 PM 33.9333 -118.4000 270° West  Level FlightAware Approximate
Thu 05:59:00 PM 33.9425 -118.4081 270° West  Level Estimated
Thu 06:00:00 PM 33.9425 -118.4081 270° West  Level Estimated
Thu 06:01:00 PM 33.9425 -118.4081 270° West  Level Estimated
Thu 06:02:00 PM 33.9425 -118.4081 270° West  Level Estimated
Thu 06:03:00 PM 33.9425 -118.4081 270° West  Level Estimated
Thu 06:04:00 PM 33.9425 -118.4081 270° West  Level Estimated
Thu 06:05:00 PM 33.9425 -118.4081 270° West  Level Estimated
Thu 06:06:00 PM 33.9425 -118.4081 270° West  Level Estimated
Thu 06:07:00 PM 33.9425 -118.4081 270° West  Level Estimated

Login

Don't have an account? Register now (free) for customized features, flight alerts, and more!